Time;durP1;ratioP1;P1;durP2;ratioP2;P2;SDS_P1;SDS_P2;PMS_P1;PMS_P2;Temp;Humidity;BMP_temperature;BMP_pressure;BME280_temperature;BME280_humidity;BME280_pressure;Samples;Min_cycle;Max_cycle;Signal;HPM_P1;HPM_P2
2024/01/03 00:00:28;;;;;;;7.28;4.30;;;;;;;;;;5135402;27;20019;-69
2024/01/03 00:02:55;;;;;;;5.82;2.97;;;;;;;;;;5132118;27;20127;-69
2024/01/03 00:05:23;;;;;;;5.40;3.50;;;;;;;;;;5134486;27;20080;-69
2024/01/03 00:07:50;;;;;;;7.53;4.00;;;;;;;;;;5114264;28;20149;-69
2024/01/03 00:10:41;;;;;;;6.35;3.70;;;;;;;;;;5114585;28;20038;-68
2024/01/03 00:13:28;;;;;;;7.05;3.83;;;;;;;;;;5114853;28;20350;-68
2024/01/03 00:15:59;;;;;;;6.18;3.85;;;;;;;;;;5114802;28;20399;-69
2024/01/03 00:18:35;;;;;;;6.50;3.60;;;;;;;;;;5114767;28;20054;-68
2024/01/03 00:21:01;;;;;;;4.95;3.15;;;;;;;;;;5114596;28;20073;-69
2024/01/03 00:23:38;;;;;;;5.55;3.25;;;;;;;;;;5114723;28;20028;-68
2024/01/03 00:26:06;;;;;;;4.45;2.80;;;;;;;;;;5114748;27;20024;-66
2024/01/03 00:28:32;;;;;;;8.30;4.07;;;;;;;;;;5114449;28;20028;-66
2024/01/03 00:30:57;;;;;;;1.67;1.48;;;;;;;;;;5114625;27;20051;-69
2024/01/03 00:33:23;;;;;;;4.88;3.20;;;;;;;;;;5114482;28;20387;-68
2024/01/03 00:35:49;;;;;;;6.35;1.92;;;;;;;;;;5131761;27;20027;-69
2024/01/03 00:38:14;;;;;;;3.13;2.13;;;;;;;;;;5132477;27;20055;-69
2024/01/03 00:40:49;;;;;;;4.20;2.90;;;;;;;;;;5134631;27;20034;-69
2024/01/03 00:43:15;;;;;;;3.85;2.50;;;;;;;;;;5134620;27;20106;-68
2024/01/03 00:45:40;;;;;;;5.18;3.08;;;;;;;;;;5133868;27;20110;-68
2024/01/03 00:48:06;;;;;;;5.55;3.17;;;;;;;;;;5134525;27;20019;-69
2024/01/03 00:50:32;;;;;;;6.88;2.67;;;;;;;;;;5134718;27;20049;-69
2024/01/03 00:52:57;;;;;;;7.22;3.50;;;;;;;;;;5134875;27;20034;-69
2024/01/03 00:55:22;;;;;;;5.00;2.85;;;;;;;;;;5134349;27;20055;-69
2024/01/03 00:57:48;;;;;;;6.03;3.20;;;;;;;;;;5134546;27;20033;-69
2024/01/03 01:00:14;;;;;;;3.88;2.15;;;;;;;;;;5134266;27;20026;-69
2024/01/03 01:02:39;;;;;;;6.32;3.25;;;;;;;;;;5134654;27;20102;-69
2024/01/03 01:05:05;;;;;;;6.25;2.97;;;;;;;;;;5134464;27;20491;-69
2024/01/03 01:07:30;;;;;;;5.05;3.00;;;;;;;;;;5134604;27;20485;-69
2024/01/03 01:09:56;;;;;;;4.35;2.85;;;;;;;;;;5134464;27;20047;-69
2024/01/03 01:12:22;;;;;;;6.10;3.08;;;;;;;;;;5134301;27;20081;-69
2024/01/03 01:14:48;;;;;;;2.55;1.83;;;;;;;;;;5134442;27;20118;-69
2024/01/03 01:17:13;;;;;;;6.03;3.22;;;;;;;;;;5134372;27;20054;-69
2024/01/03 01:19:38;;;;;;;3.92;2.60;;;;;;;;;;5133724;27;20027;-69
2024/01/03 01:22:04;;;;;;;5.63;3.25;;;;;;;;;;5115797;27;20023;-69
2024/01/03 01:24:29;;;;;;;5.88;2.90;;;;;;;;;;5134185;27;20350;-69
2024/01/03 01:26:55;;;;;;;6.05;2.97;;;;;;;;;;5133929;27;20374;-69
2024/01/03 01:29:20;;;;;;;5.07;3.13;;;;;;;;;;5134042;27;20020;-68
2024/01/03 01:31:47;;;;;;;5.63;3.10;;;;;;;;;;5134185;27;20097;-69
2024/01/03 01:34:12;;;;;;;5.35;3.28;;;;;;;;;;5134044;27;20027;-69
2024/01/03 01:36:38;;;;;;;5.28;2.80;;;;;;;;;;5134059;27;20022;-69
2024/01/03 01:39:04;;;;;;;6.28;3.20;;;;;;;;;;5133811;27;20023;-69
2024/01/03 01:41:29;;;;;;;4.68;2.70;;;;;;;;;;5133580;27;20027;-69
2024/01/03 01:43:55;;;;;;;6.32;3.28;;;;;;;;;;5133851;27;20027;-69
2024/01/03 01:46:20;;;;;;;5.15;3.25;;;;;;;;;;5133674;27;20023;-69
2024/01/03 01:48:46;;;;;;;4.80;2.67;;;;;;;;;;5133897;27;20109;-69
2024/01/03 01:51:12;;;;;;;5.43;2.83;;;;;;;;;;5133629;27;20055;-69
2024/01/03 01:53:39;;;;;;;5.07;2.72;;;;;;;;;;5133671;27;20019;-69
2024/01/03 01:56:05;;;;;;;4.03;2.17;;;;;;;;;;5133374;27;20047;-69
2024/01/03 01:58:31;;;;;;;5.05;3.00;;;;;;;;;;5115304;27;20034;-69
2024/01/03 02:00:57;;;;;;;3.20;2.00;;;;;;;;;;5133424;27;20023;-69
2024/01/03 02:03:23;;;;;;;5.30;2.72;;;;;;;;;;5133576;27;20027;-69
2024/01/03 02:05:49;;;;;;;4.72;2.33;;;;;;;;;;5133523;27;20048;-69
2024/01/03 02:08:16;;;;;;;6.50;2.40;;;;;;;;;;5133543;27;20051;-69
2024/01/03 02:10:41;;;;;;;5.70;3.20;;;;;;;;;;5133258;27;20389;-69
2024/01/03 02:13:07;;;;;;;5.03;2.30;;;;;;;;;;5133314;27;20035;-69
2024/01/03 02:15:32;;;;;;;6.13;2.88;;;;;;;;;;5114923;27;20019;-69
2024/01/03 02:17:59;;;;;;;5.03;2.65;;;;;;;;;;5133354;27;20031;-68
2024/01/03 02:20:30;;;;;;;3.45;1.42;;;;;;;;;;5133182;27;20031;-69
2024/01/03 02:22:55;;;;;;;5.55;1.92;;;;;;;;;;5133294;27;20020;-69
2024/01/03 02:25:21;;;;;;;4.97;3.10;;;;;;;;;;5132906;28;20027;-69
2024/01/03 02:27:46;;;;;;;3.33;1.95;;;;;;;;;;5133360;28;20023;-69
2024/01/03 02:30:12;;;;;;;6.25;3.15;;;;;;;;;;5114858;28;20530;-69
2024/01/03 02:32:37;;;;;;;3.90;2.53;;;;;;;;;;5135943;27;20117;-69
2024/01/03 02:35:05;;;;;;;4.90;2.45;;;;;;;;;;5137465;27;20019;-68
2024/01/03 02:37:31;;;;;;;5.82;2.45;;;;;;;;;;5137470;27;20023;-68
2024/01/03 02:39:56;;;;;;;3.53;2.03;;;;;;;;;;5137128;27;20424;-68
2024/01/03 02:42:21;;;;;;;5.15;2.55;;;;;;;;;;5137458;27;20385;-69
2024/01/03 02:44:47;;;;;;;5.55;2.38;;;;;;;;;;5137303;27;20079;-69
2024/01/03 02:47:12;;;;;;;5.80;3.20;;;;;;;;;;5137103;27;20039;-69
2024/01/03 02:49:38;;;;;;;5.50;2.95;;;;;;;;;;5137204;27;20034;-69
2024/01/03 02:52:03;;;;;;;6.50;3.13;;;;;;;;;;5137298;27;20027;-69
2024/01/03 02:54:29;;;;;;;5.43;2.83;;;;;;;;;;5136670;27;20039;-69
2024/01/03 02:56:57;;;;;;;4.68;2.67;;;;;;;;;;5137162;27;20426;-69
2024/01/03 02:59:24;;;;;;;6.40;2.20;;;;;;;;;;5136918;27;20027;-69
2024/01/03 03:01:49;;;;;;;4.07;2.55;;;;;;;;;;5136897;27;20027;-69
2024/01/03 03:04:15;;;;;;;3.75;2.60;;;;;;;;;;5136815;27;20015;-69
2024/01/03 03:06:40;;;;;;;4.25;2.53;;;;;;;;;;5137075;27;20047;-68
2024/01/03 03:09:06;;;;;;;3.88;2.75;;;;;;;;;;5136599;27;20105;-69
2024/01/03 03:11:31;;;;;;;3.50;2.50;;;;;;;;;;5136778;27;20027;-69
2024/01/03 03:13:56;;;;;;;3.85;2.50;;;;;;;;;;5136739;27;20030;-69
2024/01/03 03:16:22;;;;;;;4.25;2.40;;;;;;;;;;5136784;27;20029;-69
2024/01/03 03:18:47;;;;;;;4.53;2.50;;;;;;;;;;5136665;27;20027;-69
2024/01/03 03:21:13;;;;;;;4.35;2.65;;;;;;;;;;5136451;27;20489;-69
2024/01/03 03:23:40;;;;;;;3.08;2.30;;;;;;;;;;5136463;27;20027;-69
2024/01/03 03:26:06;;;;;;;4.20;2.83;;;;;;;;;;5136605;27;20031;-69
2024/01/03 03:28:32;;;;;;;3.28;2.10;;;;;;;;;;5136618;27;20065;-69
2024/01/03 03:30:57;;;;;;;4.25;2.22;;;;;;;;;;5136356;27;20114;-69
2024/01/03 03:33:23;;;;;;;4.10;2.78;;;;;;;;;;5136347;27;20054;-69
2024/01/03 03:35:48;;;;;;;3.63;2.50;;;;;;;;;;5136404;27;20068;-69
2024/01/03 03:38:13;;;;;;;5.93;2.25;;;;;;;;;;5136038;27;20027;-69
2024/01/03 03:40:39;;;;;;;3.10;2.30;;;;;;;;;;5136236;27;20544;-69
2024/01/03 03:43:04;;;;;;;3.58;2.00;;;;;;;;;;5135551;27;20019;-69
2024/01/03 03:45:31;;;;;;;4.55;2.10;;;;;;;;;;5136040;27;20027;-69
2024/01/03 03:47:57;;;;;;;4.63;2.50;;;;;;;;;;5136153;27;20023;-69
2024/01/03 03:50:22;;;;;;;3.20;2.10;;;;;;;;;;5135928;27;20026;-69
2024/01/03 03:52:47;;;;;;;3.65;2.30;;;;;;;;;;5135927;27;20030;-69
2024/01/03 03:55:14;;;;;;;3.45;2.70;;;;;;;;;;5135581;27;20057;-69
2024/01/03 03:57:41;;;;;;;4.43;2.53;;;;;;;;;;5135853;27;20026;-69
2024/01/03 04:00:07;;;;;;;3.95;2.38;;;;;;;;;;5117215;27;20019;-69
2024/01/03 04:02:33;;;;;;;4.07;2.58;;;;;;;;;;5135804;27;20025;-69
2024/01/03 04:04:58;;;;;;;2.85;1.88;;;;;;;;;;5135778;27;20094;-69
2024/01/03 04:07:24;;;;;;;4.72;2.63;;;;;;;;;;5135673;27;20045;-69
2024/01/03 04:09:49;;;;;;;4.57;2.42;;;;;;;;;;5135702;27;20494;-69
2024/01/03 04:12:15;;;;;;;4.15;2.70;;;;;;;;;;5135684;27;20019;-69
2024/01/03 04:14:40;;;;;;;4.05;2.40;;;;;;;;;;5135700;27;20076;-69
2024/01/03 04:17:05;;;;;;;4.60;2.78;;;;;;;;;;5135612;27;20066;-69
2024/01/03 04:19:31;;;;;;;3.53;2.10;;;;;;;;;;5135496;27;20019;-68
2024/01/03 04:21:58;;;;;;;2.58;1.50;;;;;;;;;;5135483;27;20458;-69
2024/01/03 04:24:23;;;;;;;5.18;2.40;;;;;;;;;;5135046;27;20031;-69
2024/01/03 04:26:48;;;;;;;5.28;2.72;;;;;;;;;;5135403;27;20027;-69
2024/01/03 04:29:14;;;;;;;5.75;3.28;;;;;;;;;;5135227;27;20057;-69
2024/01/03 04:31:39;;;;;;;13.65;6.60;;;;;;;;;;5135363;27;20031;-69
2024/01/03 04:34:05;;;;;;;13.85;6.28;;;;;;;;;;5135345;27;20129;-69
2024/01/03 04:36:30;;;;;;;12.60;5.47;;;;;;;;;;5134986;27;20066;-69
2024/01/03 04:38:56;;;;;;;7.43;4.63;;;;;;;;;;5134941;27;20056;-69
2024/01/03 04:41:21;;;;;;;9.13;4.65;;;;;;;;;;5134836;27;20027;-69
2024/01/03 04:43:47;;;;;;;8.65;5.10;;;;;;;;;;5135109;27;20458;-69
2024/01/03 04:46:12;;;;;;;7.00;4.00;;;;;;;;;;5116429;27;20019;-69
2024/01/03 04:48:38;;;;;;;7.82;4.30;;;;;;;;;;5134935;27;20122;-69
2024/01/03 04:51:03;;;;;;;8.20;4.28;;;;;;;;;;5134564;27;20458;-69
2024/01/03 04:53:29;;;;;;;11.27;6.25;;;;;;;;;;5134740;27;20023;-69
2024/01/03 04:55:54;;;;;;;13.68;6.28;;;;;;;;;;5133597;27;20557;-69
2024/01/03 04:58:19;;;;;;;11.77;6.40;;;;;;;;;;5134771;27;20023;-69
2024/01/03 05:00:45;;;;;;;16.23;6.45;;;;;;;;;;5134475;27;20027;-68
2024/01/03 05:03:11;;;;;;;11.80;6.20;;;;;;;;;;5134580;27;20109;-69
2024/01/03 05:05:37;;;;;;;12.00;5.55;;;;;;;;;;5134411;27;20481;-69
2024/01/03 05:08:02;;;;;;;19.58;8.23;;;;;;;;;;5134538;27;20030;-69
2024/01/03 05:10:28;;;;;;;18.40;7.97;;;;;;;;;;5115756;27;20031;-69
2024/01/03 05:12:53;;;;;;;12.25;5.68;;;;;;;;;;5134405;27;20023;-69
2024/01/03 05:15:18;;;;;;;14.70;5.82;;;;;;;;;;5134215;27;20026;-69
2024/01/03 05:17:46;;;;;;;9.02;4.97;;;;;;;;;;5134413;27;20026;-68
2024/01/03 05:20:12;;;;;;;8.20;5.22;;;;;;;;;;5133838;27;20027;-69
2024/01/03 05:22:37;;;;;;;9.38;5.07;;;;;;;;;;5134305;27;20048;-69
2024/01/03 05:25:06;;;;;;;9.32;5.40;;;;;;;;;;5134111;27;20442;-69
2024/01/03 05:27:31;;;;;;;10.45;6.65;;;;;;;;;;5134172;27;20114;-69
2024/01/03 05:29:57;;;;;;;17.83;8.23;;;;;;;;;;5134187;27;20129;-69
2024/01/03 05:32:22;;;;;;;14.85;7.80;;;;;;;;;;5133858;27;20023;-68
2024/01/03 05:34:47;;;;;;;11.63;6.15;;;;;;;;;;5134065;27;20096;-69
2024/01/03 05:37:13;;;;;;;7.80;5.03;;;;;;;;;;5133618;27;20027;-69
2024/01/03 05:39:38;;;;;;;6.60;3.97;;;;;;;;;;5133610;27;20522;-69
2024/01/03 05:42:04;;;;;;;5.05;3.65;;;;;;;;;;5133903;27;20066;-69
2024/01/03 05:44:30;;;;;;;7.53;4.18;;;;;;;;;;5133686;27;20030;-69
2024/01/03 05:46:55;;;;;;;5.13;3.40;;;;;;;;;;5133498;27;20130;-69
2024/01/03 05:49:21;;;;;;;4.70;3.25;;;;;;;;;;5133630;27;20031;-69
2024/01/03 05:51:46;;;;;;;4.63;3.63;;;;;;;;;;5133889;27;20462;-69
2024/01/03 05:54:11;;;;;;;4.13;3.28;;;;;;;;;;5133311;27;20110;-69
2024/01/03 05:56:37;;;;;;;6.40;3.60;;;;;;;;;;5133816;27;20030;-69
2024/01/03 05:59:03;;;;;;;5.32;3.55;;;;;;;;;;5133505;27;20023;-69
2024/01/03 06:01:28;;;;;;;5.30;3.55;;;;;;;;;;5132839;27;20031;-69
2024/01/03 06:03:54;;;;;;;6.63;3.67;;;;;;;;;;5133471;27;20027;-68
2024/01/03 06:06:19;;;;;;;5.20;3.55;;;;;;;;;;5133463;27;20385;-69
2024/01/03 06:08:45;;;;;;;6.13;4.05;;;;;;;;;;5133392;27;20019;-69
2024/01/03 06:11:10;;;;;;;6.28;4.30;;;;;;;;;;5133330;27;20023;-69
2024/01/03 06:13:35;;;;;;;8.60;4.45;;;;;;;;;;5133140;27;20031;-69
2024/01/03 06:16:01;;;;;;;8.38;4.43;;;;;;;;;;5133013;27;20575;-69
2024/01/03 06:18:26;;;;;;;8.30;5.05;;;;;;;;;;5133386;27;20478;-69
2024/01/03 06:20:52;;;;;;;7.55;4.60;;;;;;;;;;5133178;27;20465;-69
2024/01/03 06:23:17;;;;;;;13.60;6.40;;;;;;;;;;5133291;27;20114;-69
2024/01/03 06:25:42;;;;;;;14.20;6.45;;;;;;;;;;5133269;27;20031;-69
2024/01/03 06:28:08;;;;;;;13.43;6.57;;;;;;;;;;5133447;28;20088;-69
2024/01/03 06:30:35;;;;;;;15.23;6.28;;;;;;;;;;5132925;28;20027;-69
2024/01/03 06:33:00;;;;;;;14.55;6.38;;;;;;;;;;5133355;28;20102;-69
2024/01/03 06:35:25;;;;;;;13.43;6.32;;;;;;;;;;5133176;28;20062;-69
2024/01/03 06:37:51;;;;;;;14.90;6.40;;;;;;;;;;5133231;28;20428;-69
2024/01/03 06:40:16;;;;;;;12.35;6.45;;;;;;;;;;5132878;28;20443;-69
2024/01/03 06:42:43;;;;;;;8.80;4.90;;;;;;;;;;5132819;28;20023;-69
2024/01/03 06:45:08;;;;;;;10.85;5.35;;;;;;;;;;5133020;28;20378;-69
2024/01/03 06:47:34;;;;;;;10.82;5.30;;;;;;;;;;5132890;28;20024;-69
2024/01/03 06:49:59;;;;;;;8.63;5.10;;;;;;;;;;5132940;28;20103;-68
2024/01/03 06:52:25;;;;;;;14.18;5.63;;;;;;;;;;5132930;28;20030;-68
2024/01/03 06:54:50;;;;;;;12.45;5.30;;;;;;;;;;5132645;28;20035;-68
2024/01/03 06:57:16;;;;;;;15.38;6.05;;;;;;;;;;5132826;28;20020;-68
2024/01/03 06:59:41;;;;;;;10.30;5.43;;;;;;;;;;5132650;28;20492;-69
2024/01/03 07:02:08;;;;;;;14.93;6.30;;;;;;;;;;5132962;28;20030;-69
2024/01/03 07:04:33;;;;;;;13.15;6.57;;;;;;;;;;5133015;28;20099;-69
2024/01/03 07:06:59;;;;;;;7.55;4.55;;;;;;;;;;5132827;28;20023;-69
2024/01/03 07:09:24;;;;;;;12.85;5.13;;;;;;;;;;5114290;28;20080;-69
2024/01/03 07:11:50;;;;;;;8.07;5.10;;;;;;;;;;5132902;28;20053;-70
2024/01/03 07:14:15;;;;;;;5.38;2.90;;;;;;;;;;5132645;28;20051;-69
2024/01/03 07:16:41;;;;;;;5.55;1.95;;;;;;;;;;5132746;28;20038;-69
2024/01/03 07:19:06;;;;;;;6.20;2.63;;;;;;;;;;5135679;27;20031;-68
2024/01/03 07:21:32;;;;;;;14.48;3.08;;;;;;;;;;5136613;27;20054;-68
2024/01/03 07:23:58;;;;;;;9.25;2.67;;;;;;;;;;5136718;27;20031;-69
2024/01/03 07:26:24;;;;;;;8.88;2.17;;;;;;;;;;5136576;27;20030;-69
2024/01/03 07:28:49;;;;;;;7.10;1.60;;;;;;;;;;5117691;27;20442;-69
2024/01/03 07:31:15;;;;;;;5.72;2.35;;;;;;;;;;5136357;27;20045;-69
2024/01/03 07:33:40;;;;;;;6.45;2.30;;;;;;;;;;5136394;27;20019;-69
2024/01/03 07:36:07;;;;;;;7.60;1.67;;;;;;;;;;5136385;27;20051;-69
2024/01/03 07:38:33;;;;;;;4.68;1.52;;;;;;;;;;5136342;27;20023;-69
2024/01/03 07:40:59;;;;;;;6.53;1.58;;;;;;;;;;5136366;27;20042;-69
2024/01/03 07:43:25;;;;;;;4.00;1.45;;;;;;;;;;5136049;27;20031;-68
2024/01/03 07:45:51;;;;;;;6.78;1.50;;;;;;;;;;5136074;27;20458;-69
2024/01/03 07:48:16;;;;;;;6.78;1.25;;;;;;;;;;5136087;27;20059;-69
2024/01/03 07:50:42;;;;;;;3.22;1.20;;;;;;;;;;5135810;27;20033;-68
2024/01/03 07:53:08;;;;;;;2.22;1.20;;;;;;;;;;5134205;27;20024;-69
2024/01/03 07:55:33;;;;;;;5.85;1.40;;;;;;;;;;5135432;27;20054;-68
2024/01/03 07:57:58;;;;;;;5.32;1.45;;;;;;;;;;5135773;27;20482;-69
2024/01/03 08:00:24;;;;;;;4.70;1.30;;;;;;;;;;5135560;27;20382;-68
2024/01/03 08:02:49;;;;;;;6.30;1.70;;;;;;;;;;5135710;27;20469;-68
2024/01/03 08:05:15;;;;;;;4.18;1.52;;;;;;;;;;5135512;27;20505;-69
2024/01/03 08:07:40;;;;;;;4.00;1.40;;;;;;;;;;5135398;27;20055;-68
2024/01/03 08:10:06;;;;;;;4.80;1.35;;;;;;;;;;5135693;27;20126;-68
2024/01/03 08:12:32;;;;;;;3.53;1.20;;;;;;;;;;5135211;27;20019;-68
2024/01/03 08:14:58;;;;;;;7.25;1.48;;;;;;;;;;5120014;27;20031;-68
2024/01/03 08:17:23;;;;;;;4.65;1.10;;;;;;;;;;5114865;28;20462;-68
2024/01/03 08:19:49;;;;;;;5.00;1.30;;;;;;;;;;5114877;28;20038;-68
2024/01/03 08:22:14;;;;;;;5.60;1.10;;;;;;;;;;5114826;28;20027;-68
2024/01/03 08:24:40;;;;;;;3.85;1.08;;;;;;;;;;5114640;28;20027;-69
2024/01/03 08:27:05;;;;;;;8.18;2.47;;;;;;;;;;5114211;28;20028;-69
2024/01/03 08:29:31;;;;;;;22.13;6.18;;;;;;;;;;5113392;28;20020;-68
2024/01/03 08:31:57;;;;;;;13.35;3.50;;;;;;;;;;5114737;28;20382;-68
2024/01/03 08:34:22;;;;;;;7.10;1.80;;;;;;;;;;5114664;28;20084;-68
2024/01/03 08:36:48;;;;;;;7.28;2.08;;;;;;;;;;5096224;28;20028;-68
2024/01/03 08:39:14;;;;;;;6.55;1.50;;;;;;;;;;5114337;28;20027;-68
2024/01/03 08:41:39;;;;;;;3.67;1.52;;;;;;;;;;5114170;28;20482;-68
2024/01/03 08:44:05;;;;;;;2.85;1.30;;;;;;;;;;5114772;27;20039;-68
2024/01/03 08:46:43;;;;;;;5.15;1.42;;;;;;;;;;5134573;27;20035;-68
2024/01/03 08:49:09;;;;;;;4.07;1.38;;;;;;;;;;5134581;27;20049;-68
2024/01/03 08:51:34;;;;;;;5.10;1.30;;;;;;;;;;5116190;27;20031;-68
2024/01/03 08:54:00;;;;;;;5.13;2.28;;;;;;;;;;5133776;27;20481;-68
2024/01/03 08:56:25;;;;;;;5.53;1.50;;;;;;;;;;5134140;27;20023;-68
2024/01/03 08:58:51;;;;;;;6.68;1.83;;;;;;;;;;5134459;27;20377;-68
2024/01/03 09:01:22;;;;;;;5.07;2.10;;;;;;;;;;5134001;27;20058;-69
2024/01/03 09:03:48;;;;;;;8.77;1.90;;;;;;;;;;5134234;27;20075;-68
2024/01/03 09:06:17;;;;;;;8.25;2.60;;;;;;;;;;5134294;27;20015;-68
2024/01/03 09:08:43;;;;;;;7.22;3.13;;;;;;;;;;5134560;27;20019;-68
2024/01/03 09:11:12;;;;;;;9.18;2.50;;;;;;;;;;5133869;27;20023;-68
2024/01/03 09:13:38;;;;;;;4.18;1.50;;;;;;;;;;5134324;27;20027;-68
2024/01/03 09:16:09;;;;;;;2.60;1.00;;;;;;;;;;5134343;27;20068;-68
2024/01/03 09:18:35;;;;;;;8.43;1.63;;;;;;;;;;5134253;27;20038;-68
2024/01/03 09:21:04;;;;;;;7.32;2.08;;;;;;;;;;5134066;27;20027;-68
2024/01/03 09:23:30;;;;;;;6.40;1.10;;;;;;;;;;5115849;27;20434;-68
2024/01/03 09:25:55;;;;;;;6.18;1.50;;;;;;;;;;5133864;27;20122;-68
2024/01/03 09:28:25;;;;;;;3.40;1.38;;;;;;;;;;5133683;27;20405;-68
2024/01/03 09:30:51;;;;;;;5.50;1.67;;;;;;;;;;5134028;27;20378;-68
2024/01/03 09:33:16;;;;;;;6.90;1.88;;;;;;;;;;5133903;27;20024;-68
2024/01/03 09:35:42;;;;;;;4.28;1.23;;;;;;;;;;5133932;27;20023;-68
2024/01/03 09:38:07;;;;;;;4.45;1.58;;;;;;;;;;5133876;27;20038;-68
2024/01/03 09:40:33;;;;;;;4.90;1.73;;;;;;;;;;5133331;27;20034;-68
2024/01/03 09:43:03;;;;;;;6.55;1.65;;;;;;;;;;5133793;27;20054;-68
2024/01/03 09:45:30;;;;;;;5.40;1.30;;;;;;;;;;5133664;27;20420;-68
2024/01/03 09:47:55;;;;;;;4.85;1.60;;;;;;;;;;5133673;27;20079;-68
2024/01/03 09:50:24;;;;;;;3.83;1.73;;;;;;;;;;5133536;27;20031;-68
2024/01/03 09:52:49;;;;;;;4.15;1.30;;;;;;;;;;5133501;27;20027;-68
2024/01/03 09:55:16;;;;;;;3.25;1.40;;;;;;;;;;5132748;27;20038;-68
2024/01/03 09:57:42;;;;;;;4.43;1.25;;;;;;;;;;5133621;27;20067;-68
2024/01/03 10:00:08;;;;;;;2.13;1.00;;;;;;;;;;5115093;27;20057;-68
2024/01/03 10:02:37;;;;;;;3.92;1.10;;;;;;;;;;5133347;27;20031;-68
2024/01/03 10:05:03;;;;;;;6.15;1.40;;;;;;;;;;5133138;27;20019;-68
2024/01/03 10:07:33;;;;;;;6.50;1.83;;;;;;;;;;5133369;27;20051;-68
2024/01/03 10:09:58;;;;;;;2.90;1.17;;;;;;;;;;5133140;27;20314;-68
2024/01/03 10:12:24;;;;;;;2.53;1.50;;;;;;;;;;5133261;27;20023;-68
2024/01/03 10:14:50;;;;;;;3.20;1.20;;;;;;;;;;5133317;27;20019;-68
2024/01/03 10:17:16;;;;;;;6.00;1.30;;;;;;;;;;5133179;27;20018;-68
2024/01/03 10:19:41;;;;;;;5.35;1.48;;;;;;;;;;5133215;27;20027;-68
2024/01/03 10:22:07;;;;;;;4.85;1.13;;;;;;;;;;5132938;27;20028;-68
2024/01/03 10:24:39;;;;;;;3.97;1.40;;;;;;;;;;5132796;27;20023;-68
2024/01/03 10:27:09;;;;;;;3.88;1.67;;;;;;;;;;5133072;27;20023;-68
2024/01/03 10:29:36;;;;;;;4.72;1.40;;;;;;;;;;5133004;28;20111;-68
2024/01/03 10:32:03;;;;;;;6.82;1.45;;;;;;;;;;5133133;28;20031;-68
2024/01/03 10:34:29;;;;;;;4.93;1.50;;;;;;;;;;5133032;28;20035;-68
2024/01/03 10:36:55;;;;;;;7.30;1.58;;;;;;;;;;5132876;28;20087;-68
2024/01/03 10:39:21;;;;;;;6.57;1.70;;;;;;;;;;5132867;28;20027;-68
2024/01/03 10:41:48;;;;;;;2.38;1.27;;;;;;;;;;5133079;28;20035;-68
2024/01/03 10:44:15;;;;;;;5.43;1.48;;;;;;;;;;5133093;28;20027;-68
2024/01/03 10:46:42;;;;;;;5.47;1.42;;;;;;;;;;5132958;28;20088;-68
2024/01/03 10:49:07;;;;;;;3.55;1.38;;;;;;;;;;5132758;28;20054;-68
2024/01/03 10:51:39;;;;;;;3.70;1.30;;;;;;;;;;5132471;27;20019;-68
2024/01/03 10:54:06;;;;;;;3.20;1.40;;;;;;;;;;5135996;27;20045;-68
2024/01/03 10:56:34;;;;;;;4.68;1.30;;;;;;;;;;5136988;27;20408;-68
2024/01/03 10:59:00;;;;;;;3.03;0.98;;;;;;;;;;5136827;27;20027;-68
2024/01/03 11:01:31;;;;;;;5.00;1.15;;;;;;;;;;5136589;27;20075;-68
2024/01/03 11:04:23;;;;;;;4.22;1.35;;;;;;;;;;5136895;27;20071;-68
2024/01/03 11:07:05;;;;;;;3.60;1.45;;;;;;;;;;5136390;27;20031;-68
2024/01/03 11:09:31;;;;;;;4.00;1.30;;;;;;;;;;5142271;27;20029;-68
2024/01/03 11:12:16;;;;;;;4.53;1.40;;;;;;;;;;5157555;27;20060;-68
2024/01/03 11:14:41;;;;;;;4.00;1.27;;;;;;;;;;5157484;27;20026;-68
2024/01/03 11:17:11;;;;;;;3.58;1.20;;;;;;;;;;5157216;27;20054;-67
2024/01/03 11:19:38;;;;;;;5.63;1.65;;;;;;;;;;5157196;27;20137;-68
2024/01/03 11:22:04;;;;;;;3.70;1.20;;;;;;;;;;5157038;27;20027;-68
2024/01/03 11:24:32;;;;;;;4.18;1.08;;;;;;;;;;5157110;27;20018;-68
2024/01/03 11:27:03;;;;;;;5.43;1.40;;;;;;;;;;5157189;27;20031;-68
2024/01/03 11:29:50;;;;;;;2.92;1.00;;;;;;;;;;5149019;27;20110;-68
2024/01/03 11:32:29;;;;;;;4.65;1.08;;;;;;;;;;5136372;27;20087;-68
2024/01/03 11:34:55;;;;;;;3.80;1.33;;;;;;;;;;5136141;27;20039;-68
2024/01/03 11:37:24;;;;;;;6.43;1.23;;;;;;;;;;5136258;27;20034;-68
2024/01/03 11:39:52;;;;;;;4.33;1.40;;;;;;;;;;5136010;27;20484;-68
2024/01/03 11:42:35;;;;;;;6.25;2.20;;;;;;;;;;5136191;27;20389;-67
2024/01/03 11:45:11;;;;;;;4.32;1.98;;;;;;;;;;5135658;27;20419;-67
2024/01/03 11:47:41;;;;;;;8.90;2.90;;;;;;;;;;5135815;27;20026;-68
2024/01/03 11:50:12;;;;;;;5.35;1.85;;;;;;;;;;5135565;27;20474;-68
2024/01/03 11:52:39;;;;;;;7.07;1.50;;;;;;;;;;5135945;27;20035;-68
2024/01/03 11:55:07;;;;;;;4.40;1.40;;;;;;;;;;5135398;27;20493;-67
2024/01/03 11:57:41;;;;;;;5.72;1.05;;;;;;;;;;5135638;27;20027;-68
2024/01/03 12:00:08;;;;;;;4.55;1.38;;;;;;;;;;5135550;27;20023;-67
2024/01/03 12:02:33;;;;;;;4.75;1.13;;;;;;;;;;5135594;27;20099;-68
2024/01/03 12:05:06;;;;;;;6.80;1.42;;;;;;;;;;5134945;27;20449;-68
2024/01/03 12:07:34;;;;;;;3.20;1.23;;;;;;;;;;5135365;27;20019;-68
2024/01/03 12:09:59;;;;;;;4.90;2.28;;;;;;;;;;5135718;27;20019;-68
2024/01/03 12:12:26;;;;;;;3.75;1.10;;;;;;;;;;5135458;27;20114;-68
2024/01/03 12:14:53;;;;;;;3.63;1.10;;;;;;;;;;5135477;27;20469;-68
2024/01/03 12:17:31;;;;;;;3.60;1.50;;;;;;;;;;5116715;27;20027;-68
2024/01/03 12:20:10;;;;;;;6.65;1.30;;;;;;;;;;5135506;27;20352;-68
2024/01/03 12:22:36;;;;;;;5.78;1.50;;;;;;;;;;5135048;27;20047;-68
2024/01/03 12:25:02;;;;;;;2.00;0.85;;;;;;;;;;5135130;27;20103;-68
2024/01/03 12:27:29;;;;;;;5.63;1.58;;;;;;;;;;5135068;27;20395;-68
2024/01/03 12:30:18;;;;;;;3.80;1.00;;;;;;;;;;5135132;27;20122;-68
2024/01/03 12:32:47;;;;;;;4.25;1.80;;;;;;;;;;5135224;27;20041;-68
2024/01/03 12:35:13;;;;;;;3.00;1.40;;;;;;;;;;5135052;27;20023;-67
2024/01/03 12:37:46;;;;;;;4.97;2.55;;;;;;;;;;5134922;27;20057;-67
2024/01/03 12:40:16;;;;;;;4.20;1.83;;;;;;;;;;5134893;27;20471;-67
2024/01/03 12:42:43;;;;;;;6.28;1.70;;;;;;;;;;5135030;27;20057;-67
2024/01/03 12:45:09;;;;;;;4.93;1.50;;;;;;;;;;5134666;27;20035;-66
2024/01/03 12:47:34;;;;;;;5.80;1.50;;;;;;;;;;5134656;27;20027;-67
2024/01/03 12:50:00;;;;;;;4.57;1.30;;;;;;;;;;5134759;27;20023;-67
2024/01/03 12:52:27;;;;;;;4.63;1.20;;;;;;;;;;5134712;27;20053;-67
2024/01/03 12:54:53;;;;;;;5.45;1.40;;;;;;;;;;5134198;27;20050;-67
2024/01/03 12:57:18;;;;;;;7.18;1.42;;;;;;;;;;5134646;27;20114;-67
2024/01/03 12:59:43;;;;;;;5.13;1.50;;;;;;;;;;5135015;27;20019;-67
2024/01/03 13:02:09;;;;;;;7.82;2.63;;;;;;;;;;5134203;27;20102;-66
2024/01/03 13:04:34;;;;;;;5.78;1.85;;;;;;;;;;5134330;27;20023;-67
2024/01/03 13:07:00;;;;;;;5.95;1.45;;;;;;;;;;5134613;27;20105;-66
2024/01/03 13:09:25;;;;;;;2.60;1.20;;;;;;;;;;5134295;27;20027;-66
2024/01/03 13:11:52;;;;;;;4.55;1.45;;;;;;;;;;5134493;27;20034;-67
2024/01/03 13:14:17;;;;;;;4.30;1.50;;;;;;;;;;5134343;27;20019;-66
2024/01/03 13:16:45;;;;;;;7.70;1.45;;;;;;;;;;5133611;27;20025;-67
2024/01/03 13:19:12;;;;;;;5.75;1.70;;;;;;;;;;5133955;27;20100;-67
2024/01/03 13:21:37;;;;;;;8.32;1.40;;;;;;;;;;5134026;27;20481;-67
2024/01/03 13:24:03;;;;;;;4.40;2.20;;;;;;;;;;5133848;27;20147;-67
2024/01/03 13:26:29;;;;;;;4.68;1.70;;;;;;;;;;5133980;27;20027;-67
2024/01/03 13:28:54;;;;;;;4.65;1.60;;;;;;;;;;5133732;27;20035;-67
2024/01/03 13:31:20;;;;;;;4.55;1.80;;;;;;;;;;5132784;27;20449;-66
2024/01/03 13:33:49;;;;;;;9.90;1.65;;;;;;;;;;5133521;27;20027;-66
2024/01/03 13:36:14;;;;;;;3.50;1.50;;;;;;;;;;5133988;27;20114;-67
2024/01/03 13:38:40;;;;;;;5.20;1.38;;;;;;;;;;5133789;27;20102;-67
2024/01/03 13:41:06;;;;;;;4.40;1.70;;;;;;;;;;5133601;27;20074;-67
2024/01/03 13:43:35;;;;;;;4.32;1.45;;;;;;;;;;5133423;27;20023;-69
2024/01/03 13:46:01;;;;;;;4.97;1.80;;;;;;;;;;5133261;27;20035;-67
2024/01/03 13:48:28;;;;;;;4.80;1.60;;;;;;;;;;5133654;27;20030;-67
2024/01/03 13:50:53;;;;;;;4.57;1.67;;;;;;;;;;5115201;27;20035;-67
2024/01/03 13:53:20;;;;;;;2.78;1.20;;;;;;;;;;5133391;27;20031;-68
2024/01/03 13:55:46;;;;;;;2.83;0.90;;;;;;;;;;5133423;27;20043;-69
2024/01/03 13:58:12;;;;;;;3.08;0.90;;;;;;;;;;5133465;27;20045;-66
2024/01/03 14:00:37;;;;;;;4.75;1.30;;;;;;;;;;5133262;27;20031;-66
2024/01/03 14:03:04;;;;;;;3.78;0.90;;;;;;;;;;5133344;27;20538;-68
2024/01/03 14:05:30;;;;;;;2.17;1.00;;;;;;;;;;5115039;27;20029;-68
2024/01/03 14:07:56;;;;;;;5.93;1.27;;;;;;;;;;5133624;27;20034;-67
2024/01/03 14:10:21;;;;;;;2.40;1.10;;;;;;;;;;5133574;27;20039;-67
2024/01/03 14:12:48;;;;;;;4.10;1.30;;;;;;;;;;5133206;27;20029;-67
2024/01/03 14:15:13;;;;;;;2.88;1.00;;;;;;;;;;5132995;27;20114;-67
2024/01/03 14:17:39;;;;;;;2.92;1.33;;;;;;;;;;5133323;27;20068;-67
2024/01/03 14:20:06;;;;;;;4.50;1.30;;;;;;;;;;5133216;27;20076;-67
2024/01/03 14:22:32;;;;;;;1.75;0.90;;;;;;;;;;5133281;27;20029;-67
2024/01/03 14:24:57;;;;;;;3.40;1.05;;;;;;;;;;5133375;27;20058;-67
2024/01/03 14:27:23;;;;;;;2.13;0.90;;;;;;;;;;5131655;27;20051;-67
2024/01/03 14:29:48;;;;;;;2.78;0.98;;;;;;;;;;5132885;27;20469;-67
2024/01/03 14:32:14;;;;;;;3.53;1.10;;;;;;;;;;5133266;28;20389;-67
2024/01/03 14:34:40;;;;;;;2.28;1.00;;;;;;;;;;5133198;28;20470;-66
2024/01/03 14:37:08;;;;;;;5.50;1.27;;;;;;;;;;5132842;28;20431;-67